Time;durP1;ratioP1;P1;durP2;ratioP2;P2;SDS_P1;SDS_P2;PMS_P1;PMS_P2;Temp;Humidity;BMP_temperature;BMP_pressure;BME280_temperature;BME280_humidity;BME280_pressure;Samples;Min_cycle;Max_cycle;Signal;HPM_P1;HPM_P2
2021/12/31 00:02:58;;;;;;;0.00;0.00;;;6.00;99.50;;;;;;20884627;28;20404;-54
2021/12/31 00:13:23;;;;;;;0.00;0.00;;;6.10;98.80;;;;;;20898486;28;20558;-57
2021/12/31 00:23:35;;;;;;;0.10;0.00;;;6.60;98.20;;;;;;20882944;28;20052;-57
2021/12/31 00:33:58;;;;;;;0.00;0.00;;;6.60;98.10;;;;;;20883092;28;20441;-57
2021/12/31 00:44:10;;;;;;;0.00;0.00;;;6.90;97.70;;;;;;20882134;28;20593;-53
2021/12/31 00:54:44;;;;;;;0.17;0.00;;;6.60;98.40;;;;;;20899442;28;20037;-57
2021/12/31 01:05:07;;;;;;;0.00;0.00;;;6.40;98.40;;;;;;20880248;28;20045;-56
2021/12/31 01:15:23;;;;;;;0.05;0.00;;;6.30;98.60;;;;;;20816713;28;20041;-56
2021/12/31 01:25:46;;;;;;;0.00;0.00;;;6.20;99.20;;;;;;20792934;28;20065;-54
2021/12/31 01:36:06;;;;;;;0.40;0.00;;;6.10;99.60;;;;;;20649311;28;20046;-54
2021/12/31 01:46:30;;;;;;;0.20;0.00;;;6.30;99.30;;;;;;20648529;28;20046;-57
2021/12/31 01:56:43;;;;;;;0.00;0.00;;;6.90;98.20;;;;;;20757016;28;20429;-57
2021/12/31 02:07:07;;;;;;;0.10;0.00;;;7.00;98.00;;;;;;20807351;28;20088;-53
2021/12/31 02:17:19;;;;;;;0.20;0.00;;;6.70;98.10;;;;;;20954448;28;20052;-56
2021/12/31 02:27:55;;;;;;;0.00;0.00;;;6.40;98.30;;;;;;20974793;28;20064;-53
2021/12/31 02:38:18;;;;;;;0.45;0.00;;;6.20;98.70;;;;;;20971099;28;20086;-52
2021/12/31 02:48:41;;;;;;;0.17;0.00;;;6.10;98.40;;;;;;20980534;28;20086;-52
2021/12/31 02:58:53;;;;;;;0.00;0.00;;;6.40;98.10;;;;;;20973603;28;20075;-56
2021/12/31 03:09:20;;;;;;;0.03;0.00;;;6.80;97.30;;;;;;20971961;28;20523;-52
2021/12/31 03:19:32;;;;;;;0.10;0.00;;;6.70;97.00;;;;;;20971167;28;20045;-55
2021/12/31 03:29:54;;;;;;;0.57;0.00;;;6.40;97.00;;;;;;20887905;28;20103;-56
2021/12/31 03:40:07;;;;;;;0.20;0.00;;;6.20;97.40;;;;;;20887511;28;20488;-55
2021/12/31 03:50:29;;;;;;;0.10;0.00;;;6.20;97.60;;;;;;20886401;28;20040;-55
2021/12/31 04:00:41;;;;;;;0.00;0.00;;;6.30;96.40;;;;;;20883834;28;20033;-55
2021/12/31 04:11:05;;;;;;;0.00;0.00;;;6.40;96.10;;;;;;20920518;28;20036;-54
2021/12/31 04:21:19;;;;;;;0.03;0.00;;;6.40;96.60;;;;;;21005627;28;20044;-54
2021/12/31 04:31:42;;;;;;;0.00;0.00;;;6.30;96.60;;;;;;21075814;28;20336;-58
2021/12/31 04:41:53;;;;;;;0.50;0.00;;;6.20;95.70;;;;;;21074067;28;20097;-53
2021/12/31 04:52:16;;;;;;;0.00;0.00;;;6.30;95.30;;;;;;21075359;28;20040;-56
2021/12/31 05:02:28;;;;;;;0.00;0.00;;;6.40;96.20;;;;;;21069769;28;20024;-55
2021/12/31 05:12:55;;;;;;;0.00;0.00;;;6.30;96.30;;;;;;21071328;28;20048;-57
2021/12/31 05:23:07;;;;;;;0.00;0.00;;;6.40;95.80;;;;;;21070859;28;20040;-54
2021/12/31 05:33:30;;;;;;;0.00;0.00;;;6.40;95.40;;;;;;21068594;28;20250;-52
2021/12/31 05:43:42;;;;;;;0.00;0.00;;;6.30;95.30;;;;;;21069062;28;20028;-56
2021/12/31 05:54:05;;;;;;;0.03;0.00;;;6.20;95.20;;;;;;21065874;28;20035;-55
2021/12/31 06:04:27;;;;;;;0.00;0.00;;;6.30;94.40;;;;;;21067667;28;20032;-52
2021/12/31 06:14:48;;;;;;;0.00;0.00;;;6.30;94.70;;;;;;20974933;28;20048;-54
2021/12/31 06:25:11;;;;;;;0.00;0.00;;;6.20;94.30;;;;;;20970617;28;20076;-56
2021/12/31 06:35:23;;;;;;;0.00;0.00;;;6.10;93.10;;;;;;20957406;28;20102;-52
2021/12/31 06:45:46;;;;;;;0.00;0.00;;;6.30;93.30;;;;;;20956720;28;20076;-55
2021/12/31 06:55:58;;;;;;;0.00;0.00;;;6.40;93.10;;;;;;20956405;28;20040;-56
2021/12/31 07:06:20;;;;;;;0.00;0.00;;;6.50;92.80;;;;;;20969874;28;20049;-54
2021/12/31 07:16:32;;;;;;;0.00;0.00;;;6.50;93.30;;;;;;20955567;28;20049;-56
2021/12/31 07:26:55;;;;;;;0.00;0.00;;;6.50;93.10;;;;;;20968911;28;20514;-54
2021/12/31 07:37:07;;;;;;;0.00;0.00;;;6.60;93.20;;;;;;20952227;28;20036;-56
2021/12/31 07:47:29;;;;;;;0.00;0.00;;;6.70;92.70;;;;;;20983303;28;20040;-54
2021/12/31 07:57:41;;;;;;;0.00;0.00;;;6.80;92.70;;;;;;20982648;28;20098;-52
2021/12/31 08:08:05;;;;;;;0.00;0.00;;;7.30;93.10;;;;;;20981643;28;20045;-53
2021/12/31 08:18:28;;;;;;;0.00;0.00;;;8.20;93.20;;;;;;20980919;28;20059;-58
2021/12/31 08:28:40;;;;;;;0.00;0.00;;;9.10;91.60;;;;;;20965966;28;20496;-56
2021/12/31 08:39:10;;;;;;;0.00;0.00;;;10.30;90.70;;;;;;20979354;28;20496;-55
2021/12/31 08:49:24;;;;;;;0.73;0.10;;;11.30;89.10;;;;;;20996718;28;20048;-54
2021/12/31 08:59:46;;;;;;;0.30;0.00;;;12.10;88.30;;;;;;21073540;28;20040;-55
2021/12/31 09:10:04;;;;;;;0.00;0.00;;;13.00;87.40;;;;;;21072973;28;20044;-53
2021/12/31 09:20:27;;;;;;;0.20;0.00;;;13.50;84.70;;;;;;21071385;28;20032;-59
2021/12/31 09:30:40;;;;;;;0.10;0.00;;;14.10;81.90;;;;;;21070328;28;20559;-57
2021/12/31 09:41:14;;;;;;;0.00;0.00;;;14.50;82.60;;;;;;21072425;28;20048;-57
2021/12/31 09:51:42;;;;;;;0.10;0.05;;;15.00;83.40;;;;;;21068636;28;20043;-57
2021/12/31 10:02:01;;;;;;;0.40;0.20;;;15.20;78.80;;;;;;20892875;28;20045;-57
2021/12/31 10:12:50;;;;;;;0.30;0.10;;;15.50;79.60;;;;;;20880792;28;20044;-58
2021/12/31 10:23:21;;;;;;;0.22;0.13;;;15.80;79.40;;;;;;20889341;28;20617;-58
2021/12/31 10:33:53;;;;;;;0.10;0.00;;;15.70;77.00;;;;;;20888650;28;20099;-58
2021/12/31 10:45:01;;;;;;;1.00;0.20;;;16.00;80.70;;;;;;20891917;28;20041;-59
2021/12/31 10:55:40;;;;;;;0.20;0.10;;;16.10;77.70;;;;;;20809321;28;20045;-55
2021/12/31 11:06:14;;;;;;;0.57;0.20;;;16.10;76.30;;;;;;20812030;28;20037;-59
2021/12/31 11:16:40;;;;;;;0.43;0.30;;;16.20;74.10;;;;;;20820746;28;20045;-54
2021/12/31 11:26:58;;;;;;;1.17;0.55;;;16.60;79.50;;;;;;20862248;28;20542;-58
2021/12/31 11:37:47;;;;;;;0.80;0.30;;;16.70;80.10;;;;;;20887915;28;20108;-57
2021/12/31 11:48:26;;;;;;;0.10;0.10;;;17.10;77.30;;;;;;20900671;28;20591;-59
2021/12/31 11:59:20;;;;;;;0.30;0.10;;;17.20;78.00;;;;;;20904249;28;20040;-56
2021/12/31 12:09:45;;;;;;;0.32;0.10;;;17.50;76.60;;;;;;20838498;28;20076;-59
2021/12/31 12:20:02;;;;;;;0.43;0.15;;;17.20;75.40;;;;;;20820371;28;20069;-59
2021/12/31 12:30:42;;;;;;;0.35;0.20;;;17.10;75.00;;;;;;20900510;28;20403;-59
2021/12/31 12:41:15;;;;;;;;;;;17.20;75.00;;;;;;20930791;28;20056;-58
2021/12/31 12:51:42;;;;;;;0.32;0.20;;;17.20;73.20;;;;;;20978843;28;20356;-59
2021/12/31 13:02:00;;;;;;;0.93;0.40;;;16.80;76.90;;;;;;20810027;28;20202;-60
2021/12/31 13:12:23;;;;;;;0.50;0.40;;;16.20;76.70;;;;;;20813956;28;20495;-59
2021/12/31 13:22:37;;;;;;;0.40;0.25;;;15.30;77.60;;;;;;20731835;28;20100;-58
2021/12/31 13:33:26;;;;;;;0.80;0.32;;;14.50;78.70;;;;;;20732001;28;20490;-57
2021/12/31 13:44:03;;;;;;;0.60;0.37;;;14.00;81.80;;;;;;20731210;28;20454;-60
2021/12/31 13:54:44;;;;;;;0.40;0.20;;;13.70;80.20;;;;;;20730913;28;20045;-59
2021/12/31 14:05:24;;;;;;;0.30;0.10;;;13.30;78.60;;;;;;20823719;28;20041;-58
2021/12/31 14:15:48;;;;;;;0.90;0.30;;;13.00;77.80;;;;;;20892145;28;20238;-59
2021/12/31 14:26:20;;;;;;;0.38;0.28;;;12.70;82.70;;;;;;20941047;28;20072;-57
2021/12/31 14:38:23;;;;;;;2.50;0.50;;;12.30;84.70;;;;;;20973983;28;20102;-60
2021/12/31 14:50:15;;;;;;;1.17;0.52;;;11.80;86.60;;;;;;20803848;28;20099;-58
2021/12/31 15:02:13;;;;;;;1.55;0.13;;;11.40;88.90;;;;;;20721895;28;20042;-59
2021/12/31 15:14:08;;;;;;;0.10;0.00;;;11.20;83.80;;;;;;20729750;28;20444;-58
2021/12/31 15:26:04;;;;;;;0.00;0.00;;;10.40;84.10;;;;;;20722748;28;20075;-54
2021/12/31 15:37:42;;;;;;;2.88;1.70;;;9.60;86.60;;;;;;20562970;28;20437;-57
2021/12/31 15:49:42;;;;;;;0.20;0.00;;;9.00;86.20;;;;;;20400435;29;20170;-58
2021/12/31 16:01:24;;;;;;;0.25;0.10;;;8.60;86.30;;;;;;20414060;29;20075;-55
2021/12/31 16:12:45;;;;;;;0.28;0.10;;;8.00;88.90;;;;;;20100153;29;20486;-57
2021/12/31 16:24:07;;;;;;;0.20;0.00;;;7.80;90.10;;;;;;20025087;29;20089;-58
2021/12/31 16:35:57;;;;;;;0.00;0.00;;;7.80;89.70;;;;;;19948421;29;20598;-57
2021/12/31 16:48:02;;;;;;;0.00;0.00;;;7.90;87.30;;;;;;19950761;29;20073;-57
2021/12/31 16:59:32;;;;;;;0.05;0.00;;;8.30;86.60;;;;;;19947596;29;20042;-59
2021/12/31 17:11:05;;;;;;;2.13;0.10;;;8.20;86.70;;;;;;19947022;29;20074;-57
2021/12/31 17:23:05;;;;;;;0.00;0.00;;;8.10;85.70;;;;;;19907808;29;20083;-58
2021/12/31 17:34:35;;;;;;;0.15;0.00;;;8.20;84.70;;;;;;19934937;29;20073;-54
2021/12/31 17:45:59;;;;;;;0.00;0.00;;;8.10;84.30;;;;;;19944667;29;20525;-54
2021/12/31 17:57:53;;;;;;;0.23;0.00;;;8.40;82.10;;;;;;20174790;29;20053;-55
2021/12/31 18:22:05;;;;;;;0.00;0.00;;;7.90;83.80;;;;;;20263739;29;20075;-55
2021/12/31 18:34:04;;;;;;;1.25;0.00;;;7.80;82.70;;;;;;20296625;29;20135;-54
2021/12/31 18:46:24;;;;;;;0.00;0.00;;;8.10;81.20;;;;;;20248501;29;20136;-53
2021/12/31 18:58:20;;;;;;;0.03;0.00;;;8.20;80.30;;;;;;20168450;29;20526;-57
2021/12/31 19:10:21;;;;;;;0.00;0.00;;;7.80;79.20;;;;;;20207887;29;20076;-57
2021/12/31 19:22:20;;;;;;;0.00;0.00;;;7.80;80.00;;;;;;20231648;29;20066;-58
2021/12/31 19:34:09;;;;;;;0.00;0.00;;;7.80;78.50;;;;;;20257612;29;20124;-53
2021/12/31 19:45:34;;;;;;;0.70;0.20;;;8.00;80.20;;;;;;20244945;29;20560;-58
2021/12/31 19:57:07;;;;;;;0.00;0.00;;;7.80;79.70;;;;;;20293227;29;20048;-56
2021/12/31 20:08:30;;;;;;;0.00;0.00;;;8.10;77.70;;;;;;20178063;29;20565;-58
2021/12/31 20:20:42;;;;;;;0.00;0.00;;;8.40;76.80;;;;;;20088903;29;20125;-57
2021/12/31 20:32:32;;;;;;;0.00;0.00;;;8.40;77.30;;;;;;20055895;29;20088;-57
2021/12/31 20:44:12;;;;;;;0.00;0.00;;;8.10;76.90;;;;;;20098819;29;20069;-55
2021/12/31 20:56:05;;;;;;;0.00;0.00;;;7.90;78.50;;;;;;20058411;29;20197;-57
2021/12/31 21:08:01;;;;;;;0.00;0.00;;;7.90;76.50;;;;;;20004521;29;20137;-57
2021/12/31 21:19:41;;;;;;;0.08;0.00;;;8.00;77.10;;;;;;19984159;29;20078;-54
2021/12/31 21:31:03;;;;;;;0.10;0.00;;;7.90;75.60;;;;;;20020824;29;20518;-59
2021/12/31 21:43:03;;;;;;;0.00;0.00;;;8.50;73.00;;;;;;19962387;29;20487;-59
2021/12/31 21:54:32;;;;;;;0.00;0.00;;;9.70;62.90;;;;;;20196851;29;20083;-56
2021/12/31 22:05:55;;;;;;;0.00;0.00;;;13.80;53.30;;;;;;20248674;29;20143;-57
2021/12/31 22:17:54;;;;;;;0.17;0.00;;;15.10;50.20;;;;;;20091934;29;20049;-55
2021/12/31 22:29:50;;;;;;;2.97;0.70;;;13.10;54.30;;;;;;20233026;29;20577;-57
2021/12/31 22:41:47;;;;;;;0.20;0.10;;;11.70;58.80;;;;;;20246371;29;20048;-54
2021/12/31 22:53:52;;;;;;;0.00;0.00;;;10.70;60.80;;;;;;20169048;29;20057;-57
2021/12/31 23:05:59;;;;;;;0.28;0.10;;;10.10;62.60;;;;;;20102086;29;20076;-57
2021/12/31 23:17:56;;;;;;;0.00;0.00;;;10.20;62.70;;;;;;20186552;29;20098;-58
2021/12/31 23:29:59;;;;;;;1.45;0.65;;;10.10;64.40;;;;;;20215059;29;20486;-57
2021/12/31 23:53:24;;;;;;;0.57;0.00;;;9.60;64.70;;;;;;20106824;29;20076;-57
